createdAt,value
2019-02-09T00:00:48.081Z,100751.55
2019-02-09T00:03:16.331Z,100738.36
2019-02-09T00:05:44.623Z,100738.36
2019-02-09T00:08:14.655Z,100745.64
2019-02-09T00:10:42.933Z,100752.86
2019-02-09T00:13:11.220Z,100760.00
2019-02-09T00:15:39.541Z,100760.00
2019-02-09T00:18:07.824Z,100751.51
2019-02-09T00:20:36.105Z,100753.62
2019-02-09T00:23:04.973Z,100753.62
2019-02-09T00:25:33.245Z,100748.14
2019-02-09T00:28:01.548Z,100759.19
2019-02-09T00:30:29.851Z,100751.17
2019-02-09T00:32:58.137Z,100754.56
2019-02-09T00:35:26.428Z,100754.56
2019-02-09T00:37:54.741Z,100754.56
2019-02-09T00:40:25.320Z,100754.56
2019-02-09T00:42:53.599Z,100754.16
2019-02-09T00:45:23.157Z,100754.16
2019-02-09T00:47:51.434Z,100744.36
2019-02-09T00:50:20.616Z,100746.44
2019-02-09T00:52:49.084Z,100740.52
2019-02-09T00:55:20.011Z,100745.11
2019-02-09T00:57:48.287Z,100738.28
2019-02-09T01:00:22.323Z,100740.83
2019-02-09T01:02:50.693Z,100740.83
2019-02-09T01:05:22.030Z,100740.00
2019-02-09T01:07:50.339Z,100740.00
2019-02-09T01:10:19.856Z,100737.47
2019-02-09T01:12:48.132Z,100740.83
2019-02-09T01:15:18.454Z,100743.39
2019-02-09T01:17:46.800Z,100739.13
2019-02-09T01:20:23.389Z,100725.53
2019-02-09T01:22:52.300Z,100725.53
2019-02-09T01:25:20.648Z,100738.30
2019-02-09T01:27:48.992Z,100734.97
2019-02-09T01:30:22.362Z,100720.52
2019-02-09T01:32:50.736Z,100719.23
2019-02-09T01:35:19.438Z,100719.21
2019-02-09T01:37:48.160Z,100717.52
2019-02-09T01:40:21.968Z,100715.02
2019-02-09T01:42:50.293Z,100715.02
2019-02-09T01:45:21.832Z,100714.16
2019-02-09T01:47:50.130Z,100714.16
2019-02-09T01:50:20.588Z,100702.73
2019-02-09T01:52:48.939Z,100702.73
2019-02-09T01:55:17.224Z,100694.63
2019-02-09T01:57:45.540Z,100694.63
2019-02-09T02:00:22.136Z,100700.60
2019-02-09T02:02:50.466Z,100697.23
2019-02-09T02:05:20.689Z,100692.92
2019-02-09T02:07:49.055Z,100683.14
2019-02-09T02:10:26.199Z,100686.84
2019-02-09T02:12:54.463Z,100686.84
2019-02-09T02:15:23.119Z,100684.15
2019-02-09T02:17:51.441Z,100684.15
2019-02-09T02:20:28.261Z,100672.64
2019-02-09T02:22:56.564Z,100676.81
2019-02-09T02:25:24.859Z,100664.36
2019-02-09T02:27:53.153Z,100668.56
2019-02-09T02:30:27.141Z,100674.06
2019-02-09T02:32:55.439Z,100654.56
2019-02-09T02:35:23.717Z,100654.56
2019-02-09T02:37:52.033Z,100663.84
2019-02-09T02:40:23.007Z,100657.55
2019-02-09T02:42:51.383Z,100653.67
2019-02-09T02:45:24.035Z,100659.14
2019-02-09T02:47:52.312Z,100659.91
2019-02-09T02:50:23.787Z,100645.90
2019-02-09T02:52:52.123Z,100652.73
2019-02-09T02:55:28.558Z,100652.73
2019-02-09T02:57:56.872Z,100659.09
2019-02-09T03:00:32.130Z,100659.97
2019-02-09T03:02:57.191Z,100652.68
2019-02-09T03:05:25.779Z,100652.68
2019-02-09T03:07:54.621Z,100641.61
2019-02-09T03:10:22.892Z,100643.77
2019-02-09T03:12:51.226Z,100629.39
2019-02-09T03:15:22.511Z,100643.78
2019-02-09T03:17:50.798Z,100644.62
2019-02-09T03:20:20.566Z,100634.16
2019-02-09T03:22:48.906Z,100634.16
2019-02-09T03:25:23.017Z,100639.58
2019-02-09T03:27:51.332Z,100634.47
2019-02-09T03:30:21.652Z,100624.33
2019-02-09T03:32:49.953Z,100631.23
2019-02-09T03:35:18.626Z,100625.70
2019-02-09T03:37:46.904Z,100625.60
2019-02-09T03:40:21.018Z,100625.60
2019-02-09T03:42:49.344Z,100614.16
2019-02-09T03:45:23.164Z,100618.29
2019-02-09T03:47:51.610Z,100618.29
2019-02-09T03:50:22.156Z,100614.55
2019-02-09T03:52:50.433Z,100616.25
2019-02-09T03:55:18.711Z,100599.33
2019-02-09T03:57:47.021Z,100599.33
2019-02-09T04:00:17.743Z,100593.77
2019-02-09T04:02:46.034Z,100602.67
2019-02-09T04:05:14.417Z,100607.41
2019-02-09T04:07:42.695Z,100600.19
2019-02-09T04:10:16.737Z,100601.07
2019-02-09T04:12:45.051Z,100608.24
2019-02-09T04:15:16.435Z,100588.35
2019-02-09T04:17:44.727Z,100588.35
2019-02-09T04:20:18.533Z,100594.69
2019-02-09T04:22:46.807Z,100593.41
2019-02-09T04:25:16.644Z,100592.20
2019-02-09T04:27:44.943Z,100584.56
2019-02-09T04:30:25.333Z,100584.56
2019-02-09T04:32:53.908Z,100584.17
2019-02-09T04:35:22.348Z,100577.83
2019-02-09T04:37:50.613Z,100569.39
2019-02-09T04:40:27.016Z,100569.39
2019-02-09T04:42:55.366Z,100564.72
2019-02-09T04:45:23.647Z,100571.55
2019-02-09T04:47:51.979Z,100574.52
2019-02-09T04:50:20.343Z,100574.52
2019-02-09T04:52:48.692Z,100569.82
2019-02-09T04:55:28.728Z,100557.53
2019-02-09T04:57:57.019Z,100561.80
2019-02-09T05:00:27.793Z,100561.28
2019-02-09T05:02:56.107Z,100559.56
2019-02-09T05:05:24.743Z,100559.56
2019-02-09T05:07:53.033Z,100557.53
2019-02-09T05:10:22.999Z,100566.91
2019-02-09T05:12:51.444Z,100569.02
2019-02-09T05:15:22.841Z,100563.95
2019-02-09T05:17:53.302Z,100563.95
2019-02-09T05:20:24.864Z,100569.08
2019-02-09T05:22:54.100Z,100562.33
2019-02-09T05:25:22.446Z,100565.28
2019-02-09T05:27:50.728Z,100571.75
2019-02-09T05:30:21.812Z,100571.75
2019-02-09T05:32:50.138Z,100576.85
2019-02-09T05:35:18.414Z,100576.06
2019-02-09T05:37:46.696Z,100566.73
2019-02-09T05:40:17.448Z,100566.73
2019-02-09T05:42:45.799Z,100568.52
2019-02-09T05:45:22.337Z,100580.44
2019-02-09T05:47:50.822Z,100580.44
2019-02-09T05:50:20.251Z,100578.70
2019-02-09T05:52:48.596Z,100583.77
2019-02-09T05:55:18.110Z,100583.36
2019-02-09T05:57:46.400Z,100589.67
2019-02-09T06:00:22.171Z,100585.04
2019-02-09T06:02:50.462Z,100594.77
2019-02-09T06:05:18.901Z,100594.27
2019-02-09T06:07:47.215Z,100594.27
2019-02-09T06:10:18.769Z,100599.31
2019-02-09T06:12:47.042Z,100599.31
2019-02-09T06:15:24.705Z,100605.98
2019-02-09T06:17:52.987Z,100603.36
2019-02-09T06:20:24.524Z,100603.36
2019-02-09T06:22:53.285Z,100610.05
2019-02-09T06:25:21.584Z,100610.05
2019-02-09T06:27:49.845Z,100617.63
2019-02-09T06:30:32.520Z,100612.02
2019-02-09T06:33:00.867Z,100612.02
2019-02-09T06:35:29.777Z,100614.06
2019-02-09T06:38:00.187Z,100619.45
2019-02-09T06:40:28.468Z,100619.45
2019-02-09T06:42:58.785Z,100615.16
2019-02-09T06:45:27.745Z,100614.66
2019-02-09T06:48:18.853Z,100616.69
2019-02-09T06:50:47.219Z,100609.22
2019-02-09T06:53:15.495Z,100609.22
2019-02-09T06:55:43.770Z,100617.97
2019-02-09T06:58:12.147Z,100601.33
2019-02-09T07:00:40.454Z,100603.64
2019-02-09T07:03:11.279Z,100604.36
2019-02-09T07:05:44.912Z,100605.34
2019-02-09T07:08:16.817Z,100600.50
2019-02-09T07:10:50.997Z,100608.88
2019-02-09T07:13:23.883Z,100613.81
2019-02-09T07:15:54.946Z,100613.81
2019-02-09T07:18:28.808Z,100612.73
2019-02-09T07:21:02.529Z,100616.26
2019-02-09T07:23:35.406Z,100618.69
2019-02-09T07:26:11.429Z,100616.06
2019-02-09T07:28:40.806Z,100615.55
2019-02-09T07:31:14.023Z,100612.33
2019-02-09T07:33:46.095Z,100610.88
2019-02-09T07:36:20.513Z,100610.88
2019-02-09T07:38:51.539Z,100614.72
2019-02-09T07:41:21.614Z,100608.32
2019-02-09T07:43:51.542Z,100603.85
2019-02-09T07:46:20.096Z,100605.45
2019-02-09T07:48:51.970Z,100607.31
2019-02-09T07:51:21.213Z,100617.22
2019-02-09T07:53:54.387Z,100611.89
2019-02-09T07:56:26.870Z,100609.83
2019-02-09T07:58:56.633Z,100606.30
2019-02-09T08:01:25.427Z,100609.33
2019-02-09T08:03:53.768Z,100608.30
2019-02-09T08:06:25.677Z,100606.02
2019-02-09T08:08:54.591Z,100608.66
2019-02-09T08:11:24.318Z,100605.97
2019-02-09T08:14:02.453Z,100605.97
2019-02-09T08:16:31.378Z,100606.48
2019-02-09T08:19:04.558Z,100596.78
2019-02-09T08:21:37.513Z,100597.16
2019-02-09T08:24:08.030Z,100599.95
2019-02-09T08:26:39.576Z,100600.02
2019-02-09T08:29:09.232Z,100607.25
2019-02-09T08:31:38.318Z,100604.67
2019-02-09T08:34:10.934Z,100597.89
2019-02-09T08:36:43.678Z,100596.52
2019-02-09T08:39:15.328Z,100591.61
2019-02-09T08:41:45.251Z,100590.42
2019-02-09T08:44:16.782Z,100586.15
2019-02-09T08:46:50.623Z,100593.87
2019-02-09T08:49:23.296Z,100583.41
2019-02-09T08:52:05.558Z,100588.89
2019-02-09T08:54:40.166Z,100580.42
2019-02-09T08:57:14.431Z,100585.78
2019-02-09T08:59:48.978Z,100576.68
2019-02-09T09:02:28.614Z,100576.58
2019-02-09T09:05:09.554Z,100570.39
2019-02-09T09:07:41.790Z,100565.28
2019-02-09T09:10:24.022Z,100567.65
2019-02-09T09:13:01.165Z,100577.88
2019-02-09T09:15:52.185Z,100571.39
2019-02-09T09:18:25.113Z,100575.52
2019-02-09T09:21:01.963Z,100576.78
2019-02-09T09:23:35.629Z,100584.73
2019-02-09T09:26:09.672Z,100578.02
2019-02-09T09:28:42.667Z,100576.44
2019-02-09T09:31:14.975Z,100577.31
2019-02-09T09:33:48.461Z,100575.28
2019-02-09T09:36:21.717Z,100584.41
2019-02-09T09:38:54.919Z,100578.16
2019-02-09T09:41:27.829Z,100574.16
2019-02-09T09:43:59.494Z,100576.13
2019-02-09T09:46:31.177Z,100573.50
2019-02-09T09:49:04.427Z,100569.59
2019-02-09T09:51:37.632Z,100567.70
2019-02-09T09:54:10.473Z,100573.41
2019-02-09T09:56:43.250Z,100570.83
2019-02-09T09:59:23.072Z,100571.09
2019-02-09T10:01:53.752Z,100563.33
2019-02-09T10:04:22.061Z,100561.66
2019-02-09T10:06:52.053Z,100552.80
2019-02-09T10:09:21.967Z,100555.97
2019-02-09T10:11:53.547Z,100544.72
2019-02-09T10:14:23.538Z,100546.16
2019-02-09T10:16:51.911Z,100545.13
2019-02-09T10:19:20.259Z,100555.11
2019-02-09T10:21:49.844Z,100552.25
2019-02-09T10:24:19.768Z,100542.11
2019-02-09T10:26:48.283Z,100541.08
2019-02-09T10:29:16.742Z,100538.86
2019-02-09T10:31:45.033Z,100541.38
2019-02-09T10:34:13.359Z,100534.11
2019-02-09T10:36:41.713Z,100538.41
2019-02-09T10:39:11.611Z,100527.19
2019-02-09T10:41:40.024Z,100514.77
2019-02-09T10:44:09.180Z,100517.08
2019-02-09T10:46:39.168Z,100517.00
2019-02-09T10:49:07.478Z,100520.43
2019-02-09T10:51:35.778Z,100521.72
2019-02-09T10:54:04.064Z,100512.11
2019-02-09T10:56:34.009Z,100515.09
2019-02-09T10:59:06.552Z,100513.55
2019-02-09T11:01:36.614Z,100513.44
2019-02-09T11:04:06.635Z,100508.28
2019-02-09T11:06:36.553Z,100517.56
2019-02-09T11:09:08.237Z,100506.30
2019-02-09T11:11:36.811Z,100504.15
2019-02-09T11:14:06.390Z,100502.75
2019-02-09T11:16:34.669Z,100503.30
2019-02-09T11:19:02.977Z,100500.31
2019-02-09T11:21:31.321Z,100493.55
2019-02-09T11:24:06.230Z,100485.07
2019-02-09T11:26:38.538Z,100474.45
2019-02-09T11:29:06.957Z,100466.19
2019-02-09T11:31:35.246Z,100465.50
2019-02-09T11:34:06.820Z,100462.92
2019-02-09T11:36:38.370Z,100460.48
2019-02-09T11:39:07.495Z,100466.36
2019-02-09T11:41:39.147Z,100463.35
2019-02-09T11:44:07.367Z,100464.23
2019-02-09T11:46:36.017Z,100458.02
2019-02-09T11:49:05.970Z,100462.91
2019-02-09T11:51:37.519Z,100454.50
2019-02-09T11:54:06.877Z,100451.91
2019-02-09T11:56:36.308Z,100454.02
2019-02-09T11:59:04.912Z,100447.07
2019-02-09T12:01:34.190Z,100437.80
2019-02-09T12:04:04.140Z,100438.05
2019-02-09T12:06:34.083Z,100430.87
2019-02-09T12:09:02.441Z,100428.26
2019-02-09T12:11:34.075Z,100423.81
2019-02-09T12:14:04.027Z,100425.08
2019-02-09T12:16:32.808Z,100432.77
2019-02-09T12:19:01.406Z,100433.13
2019-02-09T12:21:32.619Z,100427.45
2019-02-09T12:24:02.544Z,100430.66
2019-02-09T12:26:30.877Z,100420.74
2019-02-09T12:28:59.218Z,100426.48
2019-02-09T12:31:29.300Z,100417.41
2019-02-09T12:33:57.698Z,100411.53
2019-02-09T12:36:25.987Z,100403.75
2019-02-09T12:38:55.946Z,100402.53
2019-02-09T12:41:25.894Z,100398.20
2019-02-09T12:43:55.903Z,100398.39
2019-02-09T12:46:24.183Z,100391.41
2019-02-09T12:48:55.886Z,100398.19
2019-02-09T12:51:24.206Z,100397.70
2019-02-09T12:53:55.324Z,100402.10
2019-02-09T12:56:24.314Z,100391.11
2019-02-09T12:58:54.322Z,100391.88
2019-02-09T13:01:26.585Z,100388.14
2019-02-09T13:04:01.044Z,100378.20
2019-02-09T13:06:29.338Z,100375.29
2019-02-09T13:08:57.626Z,100378.46
2019-02-09T13:11:26.274Z,100383.83
2019-02-09T13:13:54.568Z,100388.08
2019-02-09T13:16:25.346Z,100398.02
2019-02-09T13:18:57.801Z,100394.51
2019-02-09T13:21:26.083Z,100390.66
2019-02-09T13:23:54.382Z,100391.94
2019-02-09T13:26:24.434Z,100394.92
2019-02-09T13:28:52.852Z,100394.14
2019-02-09T13:31:21.136Z,100390.03
2019-02-09T13:33:49.449Z,100394.26
2019-02-09T13:36:17.813Z,100399.30
2019-02-09T13:38:46.186Z,100398.95
2019-02-09T13:41:17.768Z,100396.23
2019-02-09T13:43:46.305Z,100397.42
2019-02-09T13:46:14.663Z,100390.80
2019-02-09T13:48:42.992Z,100386.53
2019-02-09T13:51:11.351Z,100388.56
2019-02-09T13:53:39.630Z,100388.44
2019-02-09T13:56:07.960Z,100391.35
2019-02-09T13:58:36.255Z,100386.06
2019-02-09T14:01:04.626Z,100391.34
2019-02-09T14:03:33.000Z,100402.06
2019-02-09T14:06:08.099Z,100398.89
2019-02-09T14:08:31.369Z,100407.29
2019-02-09T14:10:59.698Z,100409.42
2019-02-09T14:13:27.987Z,100404.06
2019-02-09T14:15:57.903Z,100407.59
2019-02-09T14:18:27.132Z,100416.38
2019-02-09T14:20:55.818Z,100409.31
2019-02-09T14:23:27.386Z,100413.01
2019-02-09T14:25:55.734Z,100410.05
2019-02-09T14:28:27.155Z,100412.02
2019-02-09T14:31:01.135Z,100403.03
2019-02-09T14:33:29.456Z,100401.42
2019-02-09T14:36:01.005Z,100408.61
2019-02-09T14:38:32.958Z,100406.69
2019-02-09T14:41:03.521Z,100407.31
2019-02-09T14:43:33.445Z,100410.42
2019-02-09T14:46:03.362Z,100405.47
2019-02-09T14:48:36.580Z,100406.45
2019-02-09T14:51:08.124Z,100409.16
2019-02-09T14:53:38.118Z,100416.86
2019-02-09T14:56:06.420Z,100415.12
2019-02-09T14:58:34.700Z,100416.18
2019-02-09T15:01:02.990Z,100419.02
2019-02-09T15:03:32.947Z,100418.64
2019-02-09T15:06:02.870Z,100420.30
2019-02-09T15:08:32.838Z,100426.53
2019-02-09T15:11:02.054Z,100426.62
2019-02-09T15:13:30.341Z,100429.35
2019-02-09T15:16:14.716Z,100431.05
2019-02-09T15:18:46.282Z,100440.89
2019-02-09T15:21:15.794Z,100442.03
2019-02-09T15:23:48.568Z,100437.66
2019-02-09T15:26:18.482Z,100443.36
2019-02-09T15:28:50.080Z,100449.47
2019-02-09T15:31:22.459Z,100439.52
2019-02-09T15:33:50.801Z,100447.78
2019-02-09T15:36:20.899Z,100447.77
2019-02-09T15:38:52.489Z,100450.06
2019-02-09T15:41:24.017Z,100448.77
2019-02-09T15:43:55.562Z,100443.97
2019-02-09T15:46:24.001Z,100450.17
2019-02-09T15:48:53.505Z,100446.89
2019-02-09T15:51:25.050Z,100444.31
2019-02-09T15:53:55.086Z,100446.55
2019-02-09T15:56:23.373Z,100432.55
2019-02-09T15:58:52.402Z,100428.86
2019-02-09T16:01:21.989Z,100435.12
2019-02-09T16:03:51.836Z,100446.55
2019-02-09T16:06:23.468Z,100454.77
2019-02-09T16:08:51.966Z,100455.08
2019-02-09T16:11:20.485Z,100451.75
2019-02-09T16:13:52.661Z,100456.08
2019-02-09T16:16:21.032Z,100467.89
2019-02-09T16:18:52.604Z,100482.33
2019-02-09T16:21:20.965Z,100486.12
2019-02-09T16:23:51.074Z,100486.52
2019-02-09T16:26:19.502Z,100490.11
2019-02-09T16:28:47.797Z,100491.28
2019-02-09T16:31:16.118Z,100485.58
2019-02-09T16:33:44.529Z,100491.38
2019-02-09T16:36:12.879Z,100504.91
2019-02-09T16:38:41.214Z,100508.05
2019-02-09T16:41:09.499Z,100508.56
2019-02-09T16:43:37.810Z,100509.20
2019-02-09T16:46:07.372Z,100510.61
2019-02-09T16:48:35.653Z,100512.17
2019-02-09T16:51:05.554Z,100515.05
2019-02-09T16:53:33.884Z,100523.52
2019-02-09T16:56:02.166Z,100526.84
2019-02-09T16:58:32.260Z,100531.89
2019-02-09T17:01:02.662Z,100526.97
2019-02-09T17:03:30.976Z,100528.94
2019-02-09T17:05:59.279Z,100527.36
2019-02-09T17:08:27.623Z,100521.92
2019-02-09T17:10:55.915Z,100528.53
2019-02-09T17:13:24.197Z,100525.64
2019-02-09T17:15:54.923Z,100533.01
2019-02-09T17:18:25.121Z,100526.80
2019-02-09T17:20:53.522Z,100527.02
2019-02-09T17:23:21.851Z,100531.81
2019-02-09T17:25:50.135Z,100546.17
2019-02-09T17:28:18.508Z,100544.78
2019-02-09T17:30:47.489Z,100540.69
2019-02-09T17:33:16.195Z,100539.66
2019-02-09T17:35:46.067Z,100546.67
2019-02-09T17:38:14.390Z,100549.50
2019-02-09T17:40:47.049Z,100555.15
2019-02-09T17:43:18.648Z,100546.30
2019-02-09T17:46:00.448Z,100548.37
2019-02-09T17:48:32.109Z,100543.98
2019-02-09T17:51:00.717Z,100546.25
2019-02-09T17:53:30.649Z,100547.64
2019-02-09T17:55:58.964Z,100555.36
2019-02-09T17:58:27.252Z,100555.36
2019-02-09T18:00:57.182Z,100549.91
2019-02-09T18:03:25.516Z,100542.66
2019-02-09T18:05:55.429Z,100548.77
2019-02-09T18:08:24.128Z,100548.72
2019-02-09T18:10:54.472Z,100555.81
2019-02-09T18:13:22.746Z,100555.81
2019-02-09T18:15:52.704Z,100558.93
2019-02-09T18:18:22.353Z,100564.91
2019-02-09T18:20:53.920Z,100564.91
2019-02-09T18:23:22.512Z,100576.20
2019-02-09T18:25:52.560Z,100582.40
2019-02-09T18:28:22.484Z,100589.91
2019-02-09T18:30:54.118Z,100560.42
2019-02-09T18:33:24.148Z,100563.78
2019-02-09T18:35:52.559Z,100565.42
2019-02-09T18:38:22.552Z,100577.07
2019-02-09T18:40:52.509Z,100600.73
2019-02-09T18:43:20.877Z,100608.53
2019-02-09T18:45:49.202Z,100602.25
2019-02-09T18:48:17.539Z,100586.52
2019-02-09T18:50:47.476Z,100589.59
2019-02-09T18:53:17.398Z,100597.92
2019-02-09T18:55:47.353Z,100592.51
2019-02-09T18:58:17.292Z,100571.48
2019-02-09T19:00:48.835Z,100557.31
2019-02-09T19:03:20.504Z,100562.91
2019-02-09T19:05:49.573Z,100564.69
2019-02-09T19:08:17.881Z,100562.25
2019-02-09T19:10:50.037Z,100565.28
2019-02-09T19:13:19.983Z,100573.02
2019-02-09T19:15:49.904Z,100573.02
2019-02-09T19:18:18.257Z,100561.88
2019-02-09T19:20:52.517Z,100555.97
2019-02-09T19:23:20.851Z,100558.38
2019-02-09T19:25:49.255Z,100556.61
2019-02-09T19:28:17.612Z,100556.41
2019-02-09T19:30:47.532Z,100566.55
2019-02-09T19:33:19.184Z,100558.03
2019-02-09T19:35:49.118Z,100555.87
2019-02-09T19:38:17.404Z,100552.53
2019-02-09T19:40:47.358Z,100547.02
2019-02-09T19:43:17.285Z,100542.27
2019-02-09T19:45:47.273Z,100540.28
2019-02-09T19:48:17.288Z,100531.52
2019-02-09T19:50:47.225Z,100526.09
2019-02-09T19:53:15.565Z,100519.73
2019-02-09T19:55:43.881Z,100513.32
2019-02-09T19:58:13.811Z,100513.36
2019-02-09T20:00:51.388Z,100516.78
2019-02-09T20:03:19.664Z,100521.91
2019-02-09T20:05:49.581Z,100531.67
2019-02-09T20:08:19.545Z,100545.33
2019-02-09T20:10:47.894Z,100549.13
2019-02-09T20:13:16.353Z,100547.85
2019-02-09T20:15:46.322Z,100546.34
2019-02-09T20:18:14.619Z,100552.02
2019-02-09T20:20:47.170Z,100553.33
2019-02-09T20:23:14.096Z,100556.42
2019-02-09T20:25:42.391Z,100559.02
2019-02-09T20:28:10.776Z,100568.49
2019-02-09T20:30:40.627Z,100586.09
2019-02-09T20:33:09.033Z,100595.09
2019-02-09T20:35:38.285Z,100593.44
2019-02-09T20:38:08.164Z,100589.22
2019-02-09T20:40:38.703Z,100587.22
2019-02-09T20:43:09.440Z,100600.03
2019-02-09T20:45:37.995Z,100599.58
2019-02-09T20:48:06.318Z,100597.05
2019-02-09T20:50:34.683Z,100585.41
2019-02-09T20:53:03.377Z,100582.17
2019-02-09T20:55:31.762Z,100577.11
2019-02-09T20:58:00.141Z,100585.28
2019-02-09T21:00:31.525Z,100592.91
2019-02-09T21:02:59.924Z,100578.77
2019-02-09T21:05:35.987Z,100577.53
2019-02-09T21:07:59.336Z,100575.87
2019-02-09T21:10:31.623Z,100587.47
2019-02-09T21:13:01.643Z,100587.51
2019-02-09T21:15:33.234Z,100597.00
2019-02-09T21:18:03.297Z,100615.41
2019-02-09T21:20:33.315Z,100623.20
2019-02-09T21:23:01.650Z,100616.07
2019-02-09T21:25:41.322Z,100606.73
2019-02-09T21:28:09.736Z,100606.73
2019-02-09T21:30:39.642Z,100604.58
2019-02-09T21:33:11.203Z,100614.23
2019-02-09T21:35:44.123Z,100617.28
2019-02-09T21:38:09.546Z,100616.48
2019-02-09T21:40:39.475Z,100612.05
2019-02-09T21:43:07.797Z,100623.19
2019-02-09T21:45:36.087Z,100623.19
2019-02-09T21:48:04.370Z,100616.37
2019-02-09T21:50:35.314Z,100615.58
2019-02-09T21:53:05.248Z,100616.13
2019-02-09T21:55:35.214Z,100614.46
2019-02-09T21:58:03.710Z,100614.46
2019-02-09T22:00:34.220Z,100620.52
2019-02-09T22:03:04.601Z,100617.98
2019-02-09T22:05:34.628Z,100616.73
2019-02-09T22:08:06.302Z,100612.83
2019-02-09T22:10:36.538Z,100612.83
2019-02-09T22:13:06.520Z,100603.11
2019-02-09T22:15:38.826Z,100605.22
2019-02-09T22:18:10.180Z,100606.11
2019-02-09T22:20:38.532Z,100598.92
2019-02-09T22:23:08.491Z,100596.45
2019-02-09T22:25:38.171Z,100593.09
2019-02-09T22:28:08.810Z,100595.69
2019-02-09T22:30:38.283Z,100594.47
2019-02-09T22:33:06.672Z,100593.67
2019-02-09T22:35:39.796Z,100597.98
2019-02-09T22:38:08.082Z,100605.19
2019-02-09T22:40:40.369Z,100597.92
2019-02-09T22:43:10.380Z,100597.92
2019-02-09T22:45:38.680Z,100597.48
2019-02-09T22:48:09.109Z,100590.73
2019-02-09T22:50:43.198Z,100597.48
2019-02-09T22:53:13.109Z,100602.47
2019-02-09T22:55:41.453Z,100599.84
2019-02-09T22:58:12.401Z,100599.84
2019-02-09T23:00:57.189Z,100597.22
2019-02-09T23:03:40.665Z,100591.59
2019-02-09T23:06:16.418Z,100604.45
2019-02-09T23:08:53.911Z,100591.81
2019-02-09T23:11:23.560Z,100586.28
2019-02-09T23:13:51.932Z,100586.28
2019-02-09T23:16:21.896Z,100581.61
2019-02-09T23:18:51.815Z,100580.69
2019-02-09T23:21:21.852Z,100582.80
2019-02-09T23:23:50.160Z,100579.72
2019-02-09T23:26:20.665Z,100574.53
2019-02-09T23:28:48.955Z,100579.66
2019-02-09T23:31:21.323Z,100576.13
2019-02-09T23:33:50.713Z,100576.13
2019-02-09T23:36:18.997Z,100567.59
2019-02-09T23:38:48.941Z,100572.16
2019-02-09T23:41:19.002Z,100572.57
2019-02-09T23:43:47.317Z,100573.78
2019-02-09T23:46:17.226Z,100563.95
2019-02-09T23:48:47.516Z,100561.88
2019-02-09T23:51:15.818Z,100561.88
2019-02-09T23:53:45.586Z,100572.81
2019-02-09T23:56:16.484Z,100570.11
2019-02-09T23:58:44.794Z,100570.11
